sensor_id;sensor_type;location;lat;lon;timestamp;pressure;altitude;pressure_sealevel;temperature;humidity
6668;BME280;3370;47.712;9.082;2023-01-31T00:01:26;98069.97;;;-0.24;100.00
6668;BME280;3370;47.712;9.082;2023-01-31T00:03:54;98069.06;;;-0.31;100.00
6668;BME280;3370;47.712;9.082;2023-01-31T00:06:24;98058.09;;;-0.31;100.00
6668;BME280;3370;47.712;9.082;2023-01-31T00:08:52;98059.09;;;-0.22;100.00
6668;BME280;3370;47.712;9.082;2023-01-31T00:11:21;98060.63;;;-0.30;100.00
6668;BME280;3370;47.712;9.082;2023-01-31T00:13:47;98058.94;;;-0.29;100.00
6668;BME280;3370;47.712;9.082;2023-01-31T00:16:14;98061.47;;;-0.31;100.00
6668;BME280;3370;47.712;9.082;2023-01-31T00:18:41;98057.31;;;-0.26;100.00
6668;BME280;3370;47.712;9.082;2023-01-31T00:21:14;98050.75;;;-0.14;100.00
6668;BME280;3370;47.712;9.082;2023-01-31T00:23:42;98051.75;;;-0.03;100.00
6668;BME280;3370;47.712;9.082;2023-01-31T00:28:51;98050.13;;;0.02;100.00
6668;BME280;3370;47.712;9.082;2023-01-31T00:31:19;98054.44;;;0.12;100.00
6668;BME280;3370;47.712;9.082;2023-01-31T00:33:46;98048.53;;;0.10;100.00
6668;BME280;3370;47.712;9.082;2023-01-31T00:36:16;98052.00;;;0.17;100.00
6668;BME280;3370;47.712;9.082;2023-01-31T00:38:43;98046.09;;;0.19;100.00
6668;BME280;3370;47.712;9.082;2023-01-31T00:41:10;98039.28;;;0.12;100.00
6668;BME280;3370;47.712;9.082;2023-01-31T00:43:36;98037.56;;;0.10;100.00
6668;BME280;3370;47.712;9.082;2023-01-31T00:46:03;98029.25;;;0.18;100.00
6668;BME280;3370;47.712;9.082;2023-01-31T00:48:29;98036.75;;;0.14;100.00
6668;BME280;3370;47.712;9.082;2023-01-31T00:50:55;98032.44;;;0.05;100.00
6668;BME280;3370;47.712;9.082;2023-01-31T00:53:21;98047.63;;;0.05;100.00
6668;BME280;3370;47.712;9.082;2023-01-31T00:55:50;98035.69;;;-0.05;100.00
6668;BME280;3370;47.712;9.082;2023-01-31T00:58:16;98032.41;;;0.04;100.00
6668;BME280;3370;47.712;9.082;2023-01-31T01:00:43;98044.19;;;0.00;100.00
6668;BME280;3370;47.712;9.082;2023-01-31T01:03:09;98028.25;;;0.07;100.00
6668;BME280;3370;47.712;9.082;2023-01-31T01:05:35;98020.72;;;0.12;100.00
6668;BME280;3370;47.712;9.082;2023-01-31T01:08:01;98020.63;;;0.04;100.00
6668;BME280;3370;47.712;9.082;2023-01-31T01:10:27;98029.03;;;0.03;100.00
6668;BME280;3370;47.712;9.082;2023-01-31T01:12:53;98027.34;;;0.01;100.00
6668;BME280;3370;47.712;9.082;2023-01-31T01:15:19;98020.63;;;0.04;100.00
6668;BME280;3370;47.712;9.082;2023-01-31T01:17:44;98034.09;;;0.03;100.00
6668;BME280;3370;47.712;9.082;2023-01-31T01:20:10;98024.81;;;0.04;100.00
6668;BME280;3370;47.712;9.082;2023-01-31T01:22:36;98021.53;;;0.08;100.00
6668;BME280;3370;47.712;9.082;2023-01-31T01:25:03;98033.19;;;-0.02;100.00
6668;BME280;3370;47.712;9.082;2023-01-31T01:27:30;98030.66;;;-0.05;100.00
6668;BME280;3370;47.712;9.082;2023-01-31T01:29:56;98040.81;;;0.01;100.00
6668;BME280;3370;47.712;9.082;2023-01-31T01:32:23;98041.66;;;-0.02;100.00
6668;BME280;3370;47.712;9.082;2023-01-31T01:34:49;98045.81;;;-0.05;100.00
6668;BME280;3370;47.712;9.082;2023-01-31T01:37:15;98034.16;;;0.06;100.00
6668;BME280;3370;47.712;9.082;2023-01-31T01:39:51;98042.44;;;-0.04;100.00
6668;BME280;3370;47.712;9.082;2023-01-31T01:42:21;98030.75;;;0.04;100.00
6668;BME280;3370;47.712;9.082;2023-01-31T01:44:58;98046.66;;;-0.05;100.00
6668;BME280;3370;47.712;9.082;2023-01-31T01:47:45;98048.34;;;-0.05;100.00
6668;BME280;3370;47.712;9.082;2023-01-31T01:50:33;98051.69;;;-0.06;100.00
6668;BME280;3370;47.712;9.082;2023-01-31T01:53:13;98048.44;;;0.03;100.00
6668;BME280;3370;47.712;9.082;2023-01-31T01:55:57;98047.66;;;0.08;100.00
6668;BME280;3370;47.712;9.082;2023-01-31T02:01:09;98046.72;;;0.02;100.00
6668;BME280;3370;47.712;9.082;2023-01-31T02:03:35;98043.34;;;0.01;100.00
6668;BME280;3370;47.712;9.082;2023-01-31T02:06:04;98051.06;;;0.10;100.00
6668;BME280;3370;47.712;9.082;2023-01-31T02:08:35;98052.75;;;0.10;100.00
6668;BME280;3370;47.712;9.082;2023-01-31T02:11:24;98045.00;;;-0.01;100.00
6668;BME280;3370;47.712;9.082;2023-01-31T02:13:57;98052.53;;;-0.07;100.00
6668;BME280;3370;47.712;9.082;2023-01-31T02:16:25;98053.38;;;-0.07;100.00
6668;BME280;3370;47.712;9.082;2023-01-31T02:18:51;98050.66;;;-0.21;100.00
6668;BME280;3370;47.712;9.082;2023-01-31T02:27:39;98048.78;;;-0.34;100.00
6668;BME280;3370;47.712;9.082;2023-01-31T02:33:59;98053.75;;;-0.40;100.00
6668;BME280;3370;47.712;9.082;2023-01-31T02:39:17;98059.59;;;-0.43;100.00
6668;BME280;3370;47.712;9.082;2023-01-31T02:41:58;98068.03;;;-0.42;100.00
6668;BME280;3370;47.712;9.082;2023-01-31T02:47:34;98066.38;;;-0.42;100.00
6668;BME280;3370;47.712;9.082;2023-01-31T02:50:33;98064.72;;;-0.40;100.00
6668;BME280;3370;47.712;9.082;2023-01-31T02:53:32;98068.75;;;-0.49;100.00
6668;BME280;3370;47.712;9.082;2023-01-31T02:56:08;98065.31;;;-0.54;100.00
6668;BME280;3370;47.712;9.082;2023-01-31T02:59:01;98061.97;;;-0.53;100.00
6668;BME280;3370;47.712;9.082;2023-01-31T03:01:37;98060.25;;;-0.54;100.00
6668;BME280;3370;47.712;9.082;2023-01-31T03:04:09;98066.13;;;-0.57;100.00
6668;BME280;3370;47.712;9.082;2023-01-31T03:14:52;98072.13;;;-0.50;100.00
6668;BME280;3370;47.712;9.082;2023-01-31T03:17:52;98070.38;;;-0.54;100.00
6668;BME280;3370;47.712;9.082;2023-01-31T03:20:40;98068.72;;;-0.54;100.00
6668;BME280;3370;47.712;9.082;2023-01-31T03:23:24;98070.28;;;-0.61;100.00
6668;BME280;3370;47.712;9.082;2023-01-31T03:25:57;98075.28;;;-0.65;100.00
6668;BME280;3370;47.712;9.082;2023-01-31T03:28:31;98075.13;;;-0.73;100.00
6668;BME280;3370;47.712;9.082;2023-01-31T03:31:24;98082.66;;;-0.78;100.00
6668;BME280;3370;47.712;9.082;2023-01-31T03:33:55;98081.78;;;-0.78;100.00
6668;BME280;3370;47.712;9.082;2023-01-31T03:36:30;98076.72;;;-0.78;100.00
6668;BME280;3370;47.712;9.082;2023-01-31T03:39:38;98085.22;;;-0.76;100.00
6668;BME280;3370;47.712;9.082;2023-01-31T03:42:50;98093.53;;;-0.80;100.00
6668;BME280;3370;47.712;9.082;2023-01-31T03:45:35;98094.44;;;-0.77;100.00
6668;BME280;3370;47.712;9.082;2023-01-31T03:48:04;98087.69;;;-0.79;100.00
6668;BME280;3370;47.712;9.082;2023-01-31T03:50:51;98090.19;;;-0.79;100.00
6668;BME280;3370;47.712;9.082;2023-01-31T03:53:40;98097.66;;;-0.87;100.00
6668;BME280;3370;47.712;9.082;2023-01-31T03:56:42;98098.41;;;-0.92;100.00
6668;BME280;3370;47.712;9.082;2023-01-31T03:59:19;98089.03;;;-1.00;100.00
6668;BME280;3370;47.712;9.082;2023-01-31T04:01:50;98093.19;;;-1.00;100.00
6668;BME280;3370;47.712;9.082;2023-01-31T04:04:30;98099.78;;;-1.10;100.00
6668;BME280;3370;47.712;9.082;2023-01-31T04:07:00;98105.47;;;-1.20;100.00
6668;BME280;3370;47.712;9.082;2023-01-31T04:09:26;98107.25;;;-1.14;100.00
6668;BME280;3370;47.712;9.082;2023-01-31T04:11:52;98106.47;;;-1.12;100.00
6668;BME280;3370;47.712;9.082;2023-01-31T04:14:18;98102.91;;;-1.23;100.00
6668;BME280;3370;47.712;9.082;2023-01-31T04:16:44;98114.53;;;-1.30;100.00
6668;BME280;3370;47.712;9.082;2023-01-31T04:19:10;98112.69;;;-1.39;100.00
6668;BME280;3370;47.712;9.082;2023-01-31T04:21:36;98120.88;;;-1.49;100.00
6668;BME280;3370;47.712;9.082;2023-01-31T04:24:02;98122.69;;;-1.45;100.00
6668;BME280;3370;47.712;9.082;2023-01-31T04:26:28;98126.13;;;-1.40;100.00
6668;BME280;3370;47.712;9.082;2023-01-31T04:28:53;98126.53;;;-1.62;100.00
6668;BME280;3370;47.712;9.082;2023-01-31T04:31:19;98128.16;;;-1.64;100.00
6668;BME280;3370;47.712;9.082;2023-01-31T04:33:45;98125.63;;;-1.64;100.00
6668;BME280;3370;47.712;9.082;2023-01-31T04:36:11;98124.06;;;-1.59;100.00
6668;BME280;3370;47.712;9.082;2023-01-31T04:38:36;98128.50;;;-1.47;100.00
6668;BME280;3370;47.712;9.082;2023-01-31T04:41:02;98124.34;;;-1.44;100.00
6668;BME280;3370;47.712;9.082;2023-01-31T04:43:28;98129.47;;;-1.41;100.00
6668;BME280;3370;47.712;9.082;2023-01-31T04:45:54;98126.44;;;-1.65;100.00
6668;BME280;3370;47.712;9.082;2023-01-31T04:48:20;98133.97;;;-1.68;100.00
6668;BME280;3370;47.712;9.082;2023-01-31T04:50:45;98134.47;;;-1.85;100.00
6668;BME280;3370;47.712;9.082;2023-01-31T04:53:11;98138.69;;;-1.84;100.00
6668;BME280;3370;47.712;9.082;2023-01-31T04:55:37;98132.72;;;-1.87;100.00
6668;BME280;3370;47.712;9.082;2023-01-31T04:58:03;98137.03;;;-1.82;100.00
6668;BME280;3370;47.712;9.082;2023-01-31T05:00:28;98132.91;;;-1.78;100.00
6668;BME280;3370;47.712;9.082;2023-01-31T05:02:54;98131.34;;;-1.73;100.00
6668;BME280;3370;47.712;9.082;2023-01-31T05:05:20;98125.63;;;-1.64;100.00
6668;BME280;3370;47.712;9.082;2023-01-31T05:07:46;98139.16;;;-1.61;100.00
6668;BME280;3370;47.712;9.082;2023-01-31T05:10:12;98138.44;;;-1.55;100.00
6668;BME280;3370;47.712;9.082;2023-01-31T05:12:38;98139.31;;;-1.53;100.00
6668;BME280;3370;47.712;9.082;2023-01-31T05:15:05;98147.00;;;-1.48;100.00
6668;BME280;3370;47.712;9.082;2023-01-31T05:17:35;98155.41;;;-1.48;100.00
6668;BME280;3370;47.712;9.082;2023-01-31T05:20:01;98152.03;;;-1.48;100.00
6668;BME280;3370;47.712;9.082;2023-01-31T05:22:27;98159.56;;;-1.50;100.00
6668;BME280;3370;47.712;9.082;2023-01-31T05:24:53;98156.38;;;-1.40;100.00
6668;BME280;3370;47.712;9.082;2023-01-31T05:27:19;98160.03;;;-1.25;100.00
6668;BME280;3370;47.712;9.082;2023-01-31T05:29:45;98162.56;;;-1.27;100.00
6668;BME280;3370;47.712;9.082;2023-01-31T05:32:12;98159.13;;;-1.30;100.00
6668;BME280;3370;47.712;9.082;2023-01-31T05:34:38;98159.06;;;-1.33;100.00
6668;BME280;3370;47.712;9.082;2023-01-31T05:37:05;98163.25;;;-1.32;100.00
6668;BME280;3370;47.712;9.082;2023-01-31T05:39:31;98168.38;;;-1.29;100.00
6668;BME280;3370;47.712;9.082;2023-01-31T05:41:57;98170.06;;;-1.30;100.00
6668;BME280;3370;47.712;9.082;2023-01-31T05:44:23;98165.09;;;-1.25;100.00
6668;BME280;3370;47.712;9.082;2023-01-31T05:46:49;98158.59;;;-1.14;100.00
6668;BME280;3370;47.712;9.082;2023-01-31T05:49:15;98156.88;;;-1.15;100.00
6668;BME280;3370;47.712;9.082;2023-01-31T05:51:41;98167.66;;;-1.24;100.00
6668;BME280;3370;47.712;9.082;2023-01-31T05:54:07;98161.66;;;-1.30;100.00
6668;BME280;3370;47.712;9.082;2023-01-31T05:56:33;98165.22;;;-1.19;100.00
6668;BME280;3370;47.712;9.082;2023-01-31T05:58:59;98173.75;;;-1.14;100.00
6668;BME280;3370;47.712;9.082;2023-01-31T06:01:28;98177.84;;;-1.19;100.00
6668;BME280;3370;47.712;9.082;2023-01-31T06:03:54;98180.38;;;-1.19;100.00
6668;BME280;3370;47.712;9.082;2023-01-31T06:06:35;98179.66;;;-1.12;100.00
6668;BME280;3370;47.712;9.082;2023-01-31T06:09:11;98186.38;;;-1.12;100.00
6668;BME280;3370;47.712;9.082;2023-01-31T06:11:37;98175.44;;;-1.13;100.00
6668;BME280;3370;47.712;9.082;2023-01-31T06:14:03;98171.13;;;-1.19;100.00
6668;BME280;3370;47.712;9.082;2023-01-31T06:16:29;98170.22;;;-1.22;100.00
6668;BME280;3370;47.712;9.082;2023-01-31T06:18:54;98167.47;;;-1.33;100.00
6668;BME280;3370;47.712;9.082;2023-01-31T06:21:22;98168.50;;;-1.25;100.00
6668;BME280;3370;47.712;9.082;2023-01-31T06:23:48;98175.06;;;-1.31;100.00
6668;BME280;3370;47.712;9.082;2023-01-31T06:26:13;98183.44;;;-1.32;100.00
6668;BME280;3370;47.712;9.082;2023-01-31T06:28:39;98190.09;;;-1.38;100.00
6668;BME280;3370;47.712;9.082;2023-01-31T06:31:10;98177.56;;;-1.33;100.00
6668;BME280;3370;47.712;9.082;2023-01-31T06:33:36;98183.53;;;-1.29;100.00
6668;BME280;3370;47.712;9.082;2023-01-31T06:36:02;98181.22;;;-1.19;100.00
6668;BME280;3370;47.712;9.082;2023-01-31T06:38:29;98182.81;;;-1.22;100.00
6668;BME280;3370;47.712;9.082;2023-01-31T06:40:55;98180.38;;;-1.19;100.00
6668;BME280;3370;47.712;9.082;2023-01-31T06:43:21;98192.91;;;-1.22;100.00
6668;BME280;3370;47.712;9.082;2023-01-31T06:45:47;98192.03;;;-1.24;100.00
6668;BME280;3370;47.712;9.082;2023-01-31T06:48:16;98188.72;;;-1.23;100.00
6668;BME280;3370;47.712;9.082;2023-01-31T06:50:43;98186.25;;;-1.19;100.00
6668;BME280;3370;47.712;9.082;2023-01-31T06:53:09;98183.72;;;-1.19;100.00
6668;BME280;3370;47.712;9.082;2023-01-31T06:55:34;98189.69;;;-1.15;100.00
6668;BME280;3370;47.712;9.082;2023-01-31T06:58:00;98188.94;;;-1.11;100.00
6668;BME280;3370;47.712;9.082;2023-01-31T07:00:26;98188.06;;;-1.13;100.00
6668;BME280;3370;47.712;9.082;2023-01-31T07:02:52;98187.47;;;-1.00;100.00
6668;BME280;3370;47.712;9.082;2023-01-31T07:05:19;98185.00;;;-0.97;100.00
6668;BME280;3370;47.712;9.082;2023-01-31T07:07:46;98191.72;;;-0.97;100.00
6668;BME280;3370;47.712;9.082;2023-01-31T07:10:12;98180.81;;;-0.94;100.00
6668;BME280;3370;47.712;9.082;2023-01-31T07:12:39;98182.47;;;-0.97;100.00
6668;BME280;3370;47.712;9.082;2023-01-31T07:15:05;98185.16;;;-0.89;100.00
6668;BME280;3370;47.712;9.082;2023-01-31T07:17:31;98188.53;;;-0.88;100.00
6668;BME280;3370;47.712;9.082;2023-01-31T07:19:58;98194.47;;;-0.86;100.00
6668;BME280;3370;47.712;9.082;2023-01-31T07:22:24;98202.13;;;-0.80;100.00
6668;BME280;3370;47.712;9.082;2023-01-31T07:24:49;98210.75;;;-0.70;100.00
6668;BME280;3370;47.712;9.082;2023-01-31T07:27:16;98216.72;;;-0.67;100.00
6668;BME280;3370;47.712;9.082;2023-01-31T07:29:42;98220.88;;;-0.67;100.00
6668;BME280;3370;47.712;9.082;2023-01-31T07:32:08;98219.34;;;-0.61;100.00
6668;BME280;3370;47.712;9.082;2023-01-31T07:34:35;98214.28;;;-0.61;100.00
6668;BME280;3370;47.712;9.082;2023-01-31T07:37:00;98202.44;;;-0.65;100.00
6668;BME280;3370;47.712;9.082;2023-01-31T07:39:27;98200.88;;;-0.56;100.00
6668;BME280;3370;47.712;9.082;2023-01-31T07:41:53;98203.38;;;-0.58;100.00
6668;BME280;3370;47.712;9.082;2023-01-31T07:44:19;98187.41;;;-0.57;100.00
6668;BME280;3370;47.712;9.082;2023-01-31T07:46:45;98198.50;;;-0.47;100.00
6668;BME280;3370;47.712;9.082;2023-01-31T07:49:11;98188.50;;;-0.41;100.00
6668;BME280;3370;47.712;9.082;2023-01-31T07:51:37;98181.88;;;-0.36;100.00
6668;BME280;3370;47.712;9.082;2023-01-31T07:54:07;98176.06;;;-0.30;100.00
6668;BME280;3370;47.712;9.082;2023-01-31T07:56:34;98174.44;;;-0.27;100.00
6668;BME280;3370;47.712;9.082;2023-01-31T07:59:00;98175.34;;;-0.23;100.00
6668;BME280;3370;47.712;9.082;2023-01-31T08:01:27;98179.66;;;-0.16;100.00
6668;BME280;3370;47.712;9.082;2023-01-31T08:04:14;98180.59;;;-0.11;100.00
6668;BME280;3370;47.712;9.082;2023-01-31T08:06:42;98179.81;;;-0.05;100.00
6668;BME280;3370;47.712;9.082;2023-01-31T08:09:10;98179.03;;;-0.01;100.00
6668;BME280;3370;47.712;9.082;2023-01-31T08:11:36;98189.22;;;0.05;100.00
6668;BME280;3370;47.712;9.082;2023-01-31T08:14:02;98188.47;;;0.09;100.00
6668;BME280;3370;47.712;9.082;2023-01-31T08:16:28;98185.09;;;0.10;100.00
6668;BME280;3370;47.712;9.082;2023-01-31T08:18:54;98184.25;;;0.10;100.00
6668;BME280;3370;47.712;9.082;2023-01-31T08:21:20;98175.81;;;0.09;100.00
6668;BME280;3370;47.712;9.082;2023-01-31T08:23:46;98168.16;;;0.05;100.00
6668;BME280;3370;47.712;9.082;2023-01-31T08:26:19;98175.72;;;0.03;100.00
6668;BME280;3370;47.712;9.082;2023-01-31T08:28:47;98179.25;;;0.13;100.00
6668;BME280;3370;47.712;9.082;2023-01-31T08:31:21;98177.38;;;0.01;100.00
6668;BME280;3370;47.712;9.082;2023-01-31T08:33:47;98185.66;;;-0.08;100.00
6668;BME280;3370;47.712;9.082;2023-01-31T08:36:22;98178.91;;;-0.10;100.00
6668;BME280;3370;47.712;9.082;2023-01-31T08:38:48;98187.69;;;0.13;100.00
6668;BME280;3370;47.712;9.082;2023-01-31T08:41:16;98189.38;;;0.16;100.00
6668;BME280;3370;47.712;9.082;2023-01-31T08:43:43;98181.00;;;0.18;100.00
6668;BME280;3370;47.712;9.082;2023-01-31T08:46:10;98177.00;;;0.34;100.00
6668;BME280;3370;47.712;9.082;2023-01-31T08:48:37;98181.47;;;0.54;99.80
6668;BME280;3370;47.712;9.082;2023-01-31T08:51:10;98179.03;;;0.59;100.00
6668;BME280;3370;47.712;9.082;2023-01-31T08:53:38;98173.00;;;0.50;99.96
6668;BME280;3370;47.712;9.082;2023-01-31T08:56:06;98173.97;;;0.59;99.78
6668;BME280;3370;47.712;9.082;2023-01-31T08:58:35;98166.44;;;0.66;98.76
6668;BME280;3370;47.712;9.082;2023-01-31T09:01:04;98168.97;;;0.65;97.42
6668;BME280;3370;47.712;9.082;2023-01-31T09:03:30;98174.94;;;0.70;97.43
6668;BME280;3370;47.712;9.082;2023-01-31T09:06:05;98166.53;;;0.74;97.87
6668;BME280;3370;47.712;9.082;2023-01-31T09:08:32;98161.59;;;0.85;98.05
6668;BME280;3370;47.712;9.082;2023-01-31T09:10:58;98167.75;;;1.07;97.89
6668;BME280;3370;47.712;9.082;2023-01-31T09:13:26;98168.63;;;1.07;97.11
6668;BME280;3370;47.712;9.082;2023-01-31T09:15:58;98167.84;;;1.14;95.77
6668;BME280;3370;47.712;9.082;2023-01-31T09:18:24;98173.75;;;1.13;94.69
6668;BME280;3370;47.712;9.082;2023-01-31T09:20:51;98172.94;;;1.19;94.00
6668;BME280;3370;47.712;9.082;2023-01-31T09:23:18;98186.53;;;1.26;94.63
6668;BME280;3370;47.712;9.082;2023-01-31T09:25:53;98181.56;;;1.35;94.97
6668;BME280;3370;47.712;9.082;2023-01-31T09:28:20;98172.47;;;1.59;93.99
6668;BME280;3370;47.712;9.082;2023-01-31T09:30:46;98167.34;;;1.51;92.92
6668;BME280;3370;47.712;9.082;2023-01-31T09:33:12;98172.34;;;1.42;93.46
6668;BME280;3370;47.712;9.082;2023-01-31T09:35:38;98164.84;;;1.56;92.72
6668;BME280;3370;47.712;9.082;2023-01-31T09:38:04;98170.09;;;1.74;91.89
6668;BME280;3370;47.712;9.082;2023-01-31T09:40:33;98170.25;;;1.94;90.20
6668;BME280;3370;47.712;9.082;2023-01-31T09:43:01;98176.19;;;1.98;90.80
6668;BME280;3370;47.712;9.082;2023-01-31T09:45:34;98180.38;;;1.92;89.16
6668;BME280;3370;47.712;9.082;2023-01-31T09:48:02;98180.63;;;2.31;87.94
6668;BME280;3370;47.712;9.082;2023-01-31T09:50:45;98176.50;;;2.48;86.24
6668;BME280;3370;47.712;9.082;2023-01-31T09:53:16;98179.06;;;2.56;87.57
6668;BME280;3370;47.712;9.082;2023-01-31T09:58:46;98182.47;;;2.58;84.72
6668;BME280;3370;47.712;9.082;2023-01-31T10:05:08;98181.31;;;2.05;87.05
6668;BME280;3370;47.712;9.082;2023-01-31T10:07:44;98175.59;;;2.42;86.79
6668;BME280;3370;47.712;9.082;2023-01-31T10:10:42;98177.41;;;2.63;84.31
6668;BME280;3370;47.712;9.082;2023-01-31T10:15:52;98168.06;;;2.56;84.66
6668;BME280;3370;47.712;9.082;2023-01-31T10:18:34;98160.59;;;2.96;82.06
6668;BME280;3370;47.712;9.082;2023-01-31T10:21:10;98158.97;;;3.24;82.30
6668;BME280;3370;47.712;9.082;2023-01-31T10:24:00;98158.13;;;3.23;79.55
6668;BME280;3370;47.712;9.082;2023-01-31T10:26:31;98158.13;;;3.20;80.45
6668;BME280;3370;47.712;9.082;2023-01-31T10:32:24;98152.13;;;2.97;80.68
6668;BME280;3370;47.712;9.082;2023-01-31T10:35:02;98142.81;;;2.96;80.37
6668;BME280;3370;47.712;9.082;2023-01-31T10:37:36;98145.38;;;3.05;81.11
6668;BME280;3370;47.712;9.082;2023-01-31T10:40:17;98139.50;;;3.37;80.49
6668;BME280;3370;47.712;9.082;2023-01-31T10:43:17;98131.06;;;3.50;77.84
6668;BME280;3370;47.712;9.082;2023-01-31T10:45:45;98131.03;;;3.44;77.66
6668;BME280;3370;47.712;9.082;2023-01-31T10:48:22;98140.19;;;2.73;80.47
6668;BME280;3370;47.712;9.082;2023-01-31T10:51:22;98127.63;;;3.33;81.47
6668;BME280;3370;47.712;9.082;2023-01-31T10:56:51;98130.16;;;3.90;75.70
6668;BME280;3370;47.712;9.082;2023-01-31T10:59:27;98127.66;;;3.67;76.13
6668;BME280;3370;47.712;9.082;2023-01-31T11:01:54;98121.72;;;3.61;76.59
6668;BME280;3370;47.712;9.082;2023-01-31T11:04:35;98109.00;;;3.40;76.12
6668;BME280;3370;47.712;9.082;2023-01-31T11:07:03;98101.38;;;3.38;76.51
6668;BME280;3370;47.712;9.082;2023-01-31T11:09:35;98097.94;;;3.22;77.72
6668;BME280;3370;47.712;9.082;2023-01-31T11:12:05;98093.72;;;3.09;79.17
6668;BME280;3370;47.712;9.082;2023-01-31T11:14:31;98087.81;;;3.25;80.47
6668;BME280;3370;47.712;9.082;2023-01-31T11:17:22;98086.09;;;3.29;79.15
6668;BME280;3370;47.712;9.082;2023-01-31T11:19:54;98086.09;;;3.20;79.51
6668;BME280;3370;47.712;9.082;2023-01-31T11:22:30;98081.84;;;3.11;78.99
6668;BME280;3370;47.712;9.082;2023-01-31T11:24:59;98082.69;;;3.22;79.31
6668;BME280;3370;47.712;9.082;2023-01-31T11:27:40;98081.03;;;3.31;80.07
6668;BME280;3370;47.712;9.082;2023-01-31T11:30:31;98076.78;;;3.51;78.63
6668;BME280;3370;47.712;9.082;2023-01-31T11:33:00;98075.06;;;3.32;78.40
6668;BME280;3370;47.712;9.082;2023-01-31T11:35:30;98070.84;;;3.15;80.24
6668;BME280;3370;47.712;9.082;2023-01-31T11:40:38;98057.25;;;2.93;80.09
6668;BME280;3370;47.712;9.082;2023-01-31T11:43:25;98051.34;;;2.93;79.40
6668;BME280;3370;47.712;9.082;2023-01-31T11:45:58;98054.72;;;2.79;79.85
6668;BME280;3370;47.712;9.082;2023-01-31T11:48:41;98059.81;;;2.95;80.35
6668;BME280;3370;47.712;9.082;2023-01-31T11:51:09;98044.56;;;2.88;81.31
6668;BME280;3370;47.712;9.082;2023-01-31T11:53:48;98039.50;;;2.88;80.84
6668;BME280;3370;47.712;9.082;2023-01-31T11:56:22;98034.41;;;3.01;80.70
6668;BME280;3370;47.712;9.082;2023-01-31T11:58:54;98039.50;;;3.04;79.91
6668;BME280;3370;47.712;9.082;2023-01-31T12:01:24;98043.66;;;3.96;76.82
6668;BME280;3370;47.712;9.082;2023-01-31T12:04:02;98030.56;;;4.71;73.57
6668;BME280;3370;47.712;9.082;2023-01-31T12:06:39;98027.13;;;4.82;71.58
6668;BME280;3370;47.712;9.082;2023-01-31T12:09:25;98030.13;;;5.37;69.12
6668;BME280;3370;47.712;9.082;2023-01-31T12:12:00;98024.25;;;7.37;63.85
6668;BME280;3370;47.712;9.082;2023-01-31T12:14:40;98018.97;;;7.95;61.13
6668;BME280;3370;47.712;9.082;2023-01-31T12:17:15;98015.19;;;6.60;62.88
6668;BME280;3370;47.712;9.082;2023-01-31T12:25:27;98033.94;;;4.84;69.70
6668;BME280;3370;47.712;9.082;2023-01-31T12:31:35;98005.97;;;7.59;61.56
6668;BME280;3370;47.712;9.082;2023-01-31T12:37:28;98015.84;;;8.22;57.37
6668;BME280;3370;47.712;9.082;2023-01-31T12:43:13;97996.09;;;10.67;52.73
6668;BME280;3370;47.712;9.082;2023-01-31T12:58:27;97994.25;;;8.36;54.73
6668;BME280;3370;47.712;9.082;2023-01-31T13:01:06;97988.25;;;7.93;55.12
6668;BME280;3370;47.712;9.082;2023-01-31T13:04:25;97989.13;;;9.12;52.82
6668;BME280;3370;47.712;9.082;2023-01-31T13:07:02;98005.06;;;8.50;55.44
6668;BME280;3370;47.712;9.082;2023-01-31T13:09:34;97995.06;;;7.47;56.91
6668;BME280;3370;47.712;9.082;2023-01-31T13:12:15;97991.25;;;7.70;57.15
6668;BME280;3370;47.712;9.082;2023-01-31T13:14:55;97990.53;;;8.09;55.89
6668;BME280;3370;47.712;9.082;2023-01-31T13:17:26;97993.72;;;6.70;57.46
6668;BME280;3370;47.712;9.082;2023-01-31T13:20:21;97997.63;;;5.56;61.33
6668;BME280;3370;47.712;9.082;2023-01-31T13:22:54;97988.16;;;5.68;61.84
6668;BME280;3370;47.712;9.082;2023-01-31T13:28:10;97971.53;;;5.28;64.50
6668;BME280;3370;47.712;9.082;2023-01-31T13:30:53;97955.53;;;5.09;65.39
6668;BME280;3370;47.712;9.082;2023-01-31T13:33:36;97955.09;;;4.56;66.35
6668;BME280;3370;47.712;9.082;2023-01-31T13:38:49;97947.75;;;4.06;69.75
6668;BME280;3370;47.712;9.082;2023-01-31T13:41:26;97970.72;;;3.89;69.58
6668;BME280;3370;47.712;9.082;2023-01-31T13:43:54;97963.97;;;3.77;72.28
6668;BME280;3370;47.712;9.082;2023-01-31T13:46:33;97959.69;;;3.94;72.92
6668;BME280;3370;47.712;9.082;2023-01-31T13:49:30;97956.34;;;3.80;71.95
6668;BME280;3370;47.712;9.082;2023-01-31T13:52:34;97953.00;;;3.69;73.05
6668;BME280;3370;47.712;9.082;2023-01-31T13:55:13;97968.25;;;3.64;71.60
6668;BME280;3370;47.712;9.082;2023-01-31T13:57:55;97985.22;;;3.50;73.04
6668;BME280;3370;47.712;9.082;2023-01-31T14:00:41;97973.41;;;3.35;73.70
6668;BME280;3370;47.712;9.082;2023-01-31T14:03:13;97975.09;;;3.33;74.23
6668;BME280;3370;47.712;9.082;2023-01-31T14:14:11;97986.97;;;3.28;76.10
6668;BME280;3370;47.712;9.082;2023-01-31T14:16:43;97978.47;;;3.32;75.87
6668;BME280;3370;47.712;9.082;2023-01-31T14:21:55;97964.94;;;3.26;76.26
6668;BME280;3370;47.712;9.082;2023-01-31T14:27:35;97965.78;;;3.27;76.58
6668;BME280;3370;47.712;9.082;2023-01-31T14:32:45;97954.78;;;3.26;76.29
6668;BME280;3370;47.712;9.082;2023-01-31T14:40:51;97938.72;;;3.14;75.09
6668;BME280;3370;47.712;9.082;2023-01-31T14:46:58;97949.72;;;3.06;76.41
6668;BME280;3370;47.712;9.082;2023-01-31T14:49:54;97962.41;;;3.00;76.12
6668;BME280;3370;47.712;9.082;2023-01-31T14:52:53;97966.63;;;3.04;77.05
6668;BME280;3370;47.712;9.082;2023-01-31T14:58:26;97959.88;;;3.05;75.62
6668;BME280;3370;47.712;9.082;2023-01-31T15:00:56;97950.56;;;3.05;76.58
6668;BME280;3370;47.712;9.082;2023-01-31T15:03:36;97948.00;;;3.04;75.77
6668;BME280;3370;47.712;9.082;2023-01-31T15:06:31;97958.16;;;3.01;77.21
6668;BME280;3370;47.712;9.082;2023-01-31T15:11:56;97961.56;;;2.97;76.42
6668;BME280;3370;47.712;9.082;2023-01-31T15:14:34;97962.41;;;2.97;75.91
6668;BME280;3370;47.712;9.082;2023-01-31T15:19:59;97953.94;;;2.98;76.21
6668;BME280;3370;47.712;9.082;2023-01-31T15:22:29;97953.09;;;2.95;75.84
6668;BME280;3370;47.712;9.082;2023-01-31T15:24:58;97957.34;;;2.90;75.81
6668;BME280;3370;47.712;9.082;2023-01-31T15:27:31;97944.63;;;2.93;77.34
6668;BME280;3370;47.712;9.082;2023-01-31T15:30:38;97948.03;;;2.88;75.14
6668;BME280;3370;47.712;9.082;2023-01-31T15:33:14;97975.97;;;2.90;75.78
6668;BME280;3370;47.712;9.082;2023-01-31T15:35:54;97983.56;;;2.92;76.65
6668;BME280;3370;47.712;9.082;2023-01-31T15:39:22;97979.34;;;3.04;76.09
6668;BME280;3370;47.712;9.082;2023-01-31T15:41:40;97972.59;;;2.94;76.39
6668;BME280;3370;47.712;9.082;2023-01-31T15:44:24;97977.66;;;2.91;76.37